createdAt,value
2022-09-21T00:00:09.356Z,7.201843
2022-09-21T00:01:19.097Z,7.141418
2022-09-21T00:02:26.751Z,7.101135
2022-09-21T00:03:36.417Z,7.000427
2022-09-21T00:04:45.086Z,6.970215
2022-09-21T00:05:52.739Z,6.990356
2022-09-21T00:07:02.410Z,7.020569
2022-09-21T00:08:10.095Z,7.020569
2022-09-21T00:09:19.774Z,7.03064
2022-09-21T00:10:29.477Z,7.020569
2022-09-21T00:11:38.121Z,7.020569
2022-09-21T00:12:47.810Z,7.03064
2022-09-21T00:13:56.531Z,7.020569
2022-09-21T00:15:06.145Z,6.970215
2022-09-21T00:16:15.900Z,6.970215
2022-09-21T00:17:24.523Z,6.950073
2022-09-21T00:18:33.178Z,6.919861
2022-09-21T00:19:42.855Z,6.869507
2022-09-21T00:20:51.516Z,6.839294
2022-09-21T00:22:01.171Z,6.819153
2022-09-21T00:23:09.831Z,6.78894
2022-09-21T00:24:18.488Z,6.77887
2022-09-21T00:25:28.198Z,6.77887
2022-09-21T00:26:36.905Z,6.77887
2022-09-21T00:27:45.501Z,6.809082
2022-09-21T00:28:55.164Z,6.839294
2022-09-21T00:30:03.806Z,6.869507
2022-09-21T00:31:13.489Z,6.889648
2022-09-21T00:32:22.171Z,6.919861
2022-09-21T00:33:29.828Z,6.929932
2022-09-21T00:34:39.484Z,6.929932
2022-09-21T00:35:49.161Z,6.950073
2022-09-21T00:36:58.850Z,6.960144
2022-09-21T00:38:07.521Z,6.960144
2022-09-21T00:39:17.187Z,6.970215
2022-09-21T00:40:26.925Z,6.970215
2022-09-21T00:41:34.524Z,7.000427
2022-09-21T00:42:43.207Z,7.000427
2022-09-21T00:43:52.857Z,7.020569
2022-09-21T00:45:00.506Z,7.020569
2022-09-21T00:46:09.161Z,7.03064
2022-09-21T00:47:18.804Z,7.020569
2022-09-21T00:48:27.495Z,7.03064
2022-09-21T00:49:37.142Z,7.03064
2022-09-21T00:50:45.837Z,7.03064
2022-09-21T00:51:55.522Z,7.060852
2022-09-21T00:53:05.186Z,7.050781
2022-09-21T00:54:12.865Z,7.060852
2022-09-21T00:55:21.528Z,7.060852
2022-09-21T00:56:31.214Z,7.050781
2022-09-21T00:57:40.877Z,7.050781
2022-09-21T00:58:50.535Z,7.03064
2022-09-21T01:00:00.415Z,7.000427
2022-09-21T01:01:08.137Z,6.990356
2022-09-21T01:02:17.916Z,7.020569
2022-09-21T01:03:26.534Z,7.050781
2022-09-21T01:04:35.178Z,7.060852
2022-09-21T01:05:44.871Z,7.101135
2022-09-21T01:06:52.520Z,7.131348
2022-09-21T01:08:02.226Z,7.131348
2022-09-21T01:09:11.892Z,7.131348
2022-09-21T01:10:19.667Z,7.151489
2022-09-21T01:11:29.330Z,7.141418
2022-09-21T01:12:37.004Z,7.171631
2022-09-21T01:13:46.646Z,7.181702
2022-09-21T01:14:56.323Z,7.211914
2022-09-21T01:16:03.984Z,7.232056
2022-09-21T01:17:13.630Z,7.232056
2022-09-21T01:18:22.288Z,7.232056
2022-09-21T01:19:30.939Z,7.242126
2022-09-21T01:20:40.587Z,7.29248
2022-09-21T01:21:49.246Z,7.252197
2022-09-21T01:22:57.938Z,7.252197
2022-09-21T01:24:07.586Z,7.252197
2022-09-21T01:25:16.234Z,7.28241
2022-09-21T01:26:25.898Z,7.242126
2022-09-21T01:27:33.557Z,7.242126
2022-09-21T01:28:43.252Z,7.242126
2022-09-21T01:29:51.929Z,7.252197
2022-09-21T01:30:59.672Z,7.312622
2022-09-21T01:32:09.266Z,7.322693
2022-09-21T01:33:17.912Z,7.312622
2022-09-21T01:34:27.582Z,7.312622
2022-09-21T01:35:37.248Z,7.312622
2022-09-21T01:36:45.918Z,7.322693
2022-09-21T01:37:55.575Z,7.322693
2022-09-21T01:39:05.242Z,7.332764
2022-09-21T01:40:13.116Z,7.322693
2022-09-21T01:41:22.750Z,7.332764
2022-09-21T01:42:30.401Z,7.332764
2022-09-21T01:43:39.089Z,7.352905
2022-09-21T01:44:48.759Z,7.332764
2022-09-21T01:45:57.532Z,7.312622
2022-09-21T01:47:07.231Z,7.312622
2022-09-21T01:48:16.777Z,7.312622
2022-09-21T01:49:23.427Z,7.242126
2022-09-21T01:50:33.121Z,7.232056
2022-09-21T01:51:40.790Z,7.232056
2022-09-21T01:52:50.439Z,7.201843
2022-09-21T01:54:00.116Z,7.151489
2022-09-21T01:55:09.778Z,7.131348
2022-09-21T01:56:19.502Z,7.101135
2022-09-21T01:57:28.203Z,7.101135
2022-09-21T01:58:36.877Z,7.070923
2022-09-21T01:59:46.613Z,7.060852
2022-09-21T02:00:54.270Z,7.03064
2022-09-21T02:02:03.037Z,7.03064
2022-09-21T02:03:12.734Z,7.000427
2022-09-21T02:04:20.371Z,6.990356
2022-09-21T02:05:30.033Z,6.960144
2022-09-21T02:06:38.679Z,6.950073
2022-09-21T02:07:48.329Z,6.889648
2022-09-21T02:08:58.014Z,6.869507
2022-09-21T02:10:07.675Z,6.839294
2022-09-21T02:11:17.367Z,6.809082
2022-09-21T02:12:27.041Z,6.78894
2022-09-21T02:13:34.694Z,6.78894
2022-09-21T02:14:44.374Z,6.748657
2022-09-21T02:15:53.075Z,6.718445
2022-09-21T02:17:01.685Z,6.65802
2022-09-21T02:18:11.387Z,6.617737
2022-09-21T02:19:19.069Z,6.557312
2022-09-21T02:20:27.701Z,6.506958
2022-09-21T02:21:37.360Z,6.446533
2022-09-21T02:22:45.007Z,6.456604
2022-09-21T02:23:54.662Z,6.436462
2022-09-21T02:25:03.318Z,6.436462
2022-09-21T02:26:12.003Z,6.40625
2022-09-21T02:27:21.718Z,6.386108
2022-09-21T02:28:30.385Z,6.355896
2022-09-21T02:29:40.036Z,6.325684
2022-09-21T02:30:49.695Z,6.345825
2022-09-21T02:31:58.362Z,6.295471
2022-09-21T02:33:08.047Z,6.295471
2022-09-21T02:34:16.718Z,6.295471
2022-09-21T02:35:25.419Z,6.255188
2022-09-21T02:36:35.062Z,6.235046
2022-09-21T02:37:43.739Z,6.204834
2022-09-21T02:38:53.393Z,6.174622
2022-09-21T02:40:03.157Z,6.114197
2022-09-21T02:41:11.732Z,6.073914
2022-09-21T02:42:21.387Z,6.043701
2022-09-21T02:43:30.203Z,6.02356
2022-09-21T02:44:37.846Z,6.02356
2022-09-21T02:45:47.502Z,6.013489
2022-09-21T02:46:55.219Z,6.013489
2022-09-21T02:48:04.800Z,6.013489
2022-09-21T02:49:14.529Z,5.993347
2022-09-21T02:50:22.184Z,6.013489
2022-09-21T02:51:31.885Z,5.993347
2022-09-21T02:52:41.530Z,5.993347
2022-09-21T02:53:49.204Z,5.993347
2022-09-21T02:54:58.891Z,5.993347
2022-09-21T02:56:07.600Z,5.942993
2022-09-21T02:57:16.286Z,5.892639
2022-09-21T02:58:25.935Z,5.842285
2022-09-21T02:59:34.594Z,5.791931
2022-09-21T03:00:44.334Z,5.731506
2022-09-21T03:01:53.982Z,5.721436
2022-09-21T03:03:01.667Z,5.711365
2022-09-21T03:04:11.329Z,5.721436
2022-09-21T03:05:18.985Z,5.691223
2022-09-21T03:06:27.655Z,5.691223
2022-09-21T03:07:37.352Z,5.691223
2022-09-21T03:08:45.991Z,5.681152
2022-09-21T03:09:55.647Z,5.65094
2022-09-21T03:11:04.303Z,5.640869
2022-09-21T03:12:13.989Z,5.620728
2022-09-21T03:13:23.714Z,5.620728
2022-09-21T03:14:32.384Z,5.620728
2022-09-21T03:15:41.084Z,5.590515
2022-09-21T03:16:50.689Z,5.570374
2022-09-21T03:18:00.415Z,5.610657
2022-09-21T03:19:10.046Z,5.610657
2022-09-21T03:20:19.712Z,5.590515
2022-09-21T03:21:28.363Z,5.560303
2022-09-21T03:22:39.034Z,5.53009
2022-09-21T03:23:46.729Z,5.53009
2022-09-21T03:24:56.369Z,5.499878
2022-09-21T03:26:05.024Z,5.469666
2022-09-21T03:27:13.674Z,5.479736
2022-09-21T03:28:23.348Z,5.479736
2022-09-21T03:29:33.024Z,5.499878
2022-09-21T03:30:42.682Z,5.479736
2022-09-21T03:31:51.360Z,5.499878
2022-09-21T03:33:01.011Z,5.469666
2022-09-21T03:34:10.693Z,5.469666
2022-09-21T03:35:19.367Z,5.459595
2022-09-21T03:36:28.013Z,5.439453
2022-09-21T03:37:41.126Z,5.429382
2022-09-21T03:38:46.333Z,5.409241
2022-09-21T03:39:56.015Z,5.389099
2022-09-21T03:41:05.657Z,5.358887
2022-09-21T03:42:14.340Z,5.348816
2022-09-21T03:43:23.996Z,5.348816
2022-09-21T03:44:31.653Z,5.358887
2022-09-21T03:45:40.304Z,5.328674
2022-09-21T03:46:50.215Z,5.298462
2022-09-21T03:47:57.890Z,5.318604
2022-09-21T03:49:07.626Z,5.298462
2022-09-21T03:50:16.275Z,5.298462
2022-09-21T03:51:24.941Z,5.288391
2022-09-21T03:52:34.598Z,5.288391
2022-09-21T03:53:43.261Z,5.288391
2022-09-21T03:54:52.912Z,5.288391
2022-09-21T03:56:02.616Z,5.258179
2022-09-21T03:57:11.237Z,5.27832
2022-09-21T03:58:20.938Z,5.248108
2022-09-21T03:59:29.600Z,5.227966
2022-09-21T04:00:38.256Z,5.207825
2022-09-21T04:01:47.984Z,5.177612
2022-09-21T04:02:56.611Z,5.1474
2022-09-21T04:04:05.281Z,5.1474
2022-09-21T04:05:14.969Z,5.117188
2022-09-21T04:06:22.613Z,5.097046
2022-09-21T04:07:32.269Z,5.097046
2022-09-21T04:08:40.923Z,5.097046
2022-09-21T04:09:48.614Z,5.107117
2022-09-21T04:10:58.269Z,5.107117
2022-09-21T04:12:07.942Z,5.107117
2022-09-21T04:13:17.562Z,5.107117
2022-09-21T04:14:27.227Z,5.117188
2022-09-21T04:15:34.967Z,5.137329
2022-09-21T04:16:44.591Z,5.117188
2022-09-21T04:17:54.256Z,5.137329
2022-09-21T04:19:03.943Z,5.117188
2022-09-21T04:20:13.604Z,5.117188
2022-09-21T04:21:21.284Z,5.117188
2022-09-21T04:22:29.941Z,5.117188
2022-09-21T04:23:40.596Z,5.107117
2022-09-21T04:24:48.313Z,5.076904
2022-09-21T04:25:57.988Z,5.036621
2022-09-21T04:27:06.675Z,4.956055
2022-09-21T04:28:14.356Z,4.925842
2022-09-21T04:29:25.011Z,4.89563
2022-09-21T04:30:37.470Z,4.855347
2022-09-21T04:31:43.308Z,4.815063
2022-09-21T04:32:53.027Z,4.784851
2022-09-21T04:34:01.700Z,4.744568
2022-09-21T04:35:11.380Z,4.714355
2022-09-21T04:36:21.071Z,4.684143
2022-09-21T04:37:30.720Z,4.664001
2022-09-21T04:38:40.414Z,4.623718
2022-09-21T04:39:48.052Z,4.583435
2022-09-21T04:40:56.732Z,4.533081
2022-09-21T04:42:06.423Z,4.482727
2022-09-21T04:43:16.875Z,4.442444
2022-09-21T04:44:24.884Z,4.412231
2022-09-21T04:45:34.554Z,4.402161
2022-09-21T04:46:43.226Z,4.402161
2022-09-21T04:47:52.900Z,4.402161
2022-09-21T04:49:00.595Z,4.382019
2022-09-21T04:50:11.207Z,4.422302
2022-09-21T04:51:20.881Z,4.422302
2022-09-21T04:52:30.634Z,4.412231
2022-09-21T04:53:40.312Z,4.402161
2022-09-21T04:54:48.962Z,4.371948
2022-09-21T04:55:56.648Z,4.452515
2022-09-21T04:57:06.319Z,4.684143
2022-09-21T04:58:13.975Z,4.855347
2022-09-21T04:59:24.623Z,4.986267
2022-09-21T05:00:34.305Z,5.076904
2022-09-21T05:01:42.042Z,5.137329
2022-09-21T05:02:51.630Z,5.197754
2022-09-21T05:04:00.324Z,5.258179
2022-09-21T05:05:09.975Z,5.288391
2022-09-21T05:06:19.656Z,5.318604
2022-09-21T05:07:28.353Z,5.328674
2022-09-21T05:08:37.006Z,5.348816
2022-09-21T05:09:46.672Z,5.379028
2022-09-21T05:10:54.320Z,5.389099
2022-09-21T05:12:04.010Z,5.409241
2022-09-21T05:13:16.711Z,5.409241
2022-09-21T05:14:22.340Z,5.439453
2022-09-21T05:15:32.049Z,5.469666
2022-09-21T05:16:39.725Z,5.469666
2022-09-21T05:17:48.369Z,5.479736
2022-09-21T05:18:57.064Z,5.459595
2022-09-21T05:20:03.743Z,5.459595
2022-09-21T05:21:13.389Z,5.469666
2022-09-21T05:22:22.047Z,5.479736
2022-09-21T05:23:31.703Z,5.499878
2022-09-21T05:24:40.498Z,5.509949
2022-09-21T05:25:49.140Z,5.509949
2022-09-21T05:26:57.796Z,5.560303
2022-09-21T05:28:05.458Z,5.560303
2022-09-21T05:29:14.102Z,5.560303
2022-09-21T05:30:23.791Z,5.53009
2022-09-21T05:31:31.481Z,5.560303
2022-09-21T05:32:41.135Z,5.560303
2022-09-21T05:33:50.786Z,5.540161
2022-09-21T05:34:58.436Z,5.560303
2022-09-21T05:36:08.124Z,5.570374
2022-09-21T05:37:17.779Z,5.610657
2022-09-21T05:38:26.435Z,5.610657
2022-09-21T05:39:36.100Z,5.590515
2022-09-21T05:40:44.770Z,5.590515
2022-09-21T05:41:54.488Z,5.570374
2022-09-21T05:43:03.162Z,5.590515
2022-09-21T05:44:10.857Z,5.65094
2022-09-21T05:45:20.527Z,5.691223
2022-09-21T05:46:28.232Z,5.761719
2022-09-21T05:47:35.860Z,5.791931
2022-09-21T05:48:45.599Z,5.791931
2022-09-21T05:49:53.225Z,5.721436
2022-09-21T05:51:02.882Z,5.751648
2022-09-21T05:52:11.540Z,5.842285
2022-09-21T05:53:20.383Z,5.862427
2022-09-21T05:54:30.126Z,5.912781
2022-09-21T05:55:39.802Z,5.912781
2022-09-21T05:56:47.447Z,5.932922
2022-09-21T05:57:57.116Z,5.993347
2022-09-21T05:59:05.806Z,6.043701
2022-09-21T06:00:15.471Z,6.114197
2022-09-21T06:01:25.165Z,6.114197
2022-09-21T06:02:33.832Z,6.124268
2022-09-21T06:03:43.472Z,6.224976
2022-09-21T06:04:51.159Z,6.295471
2022-09-21T06:06:00.834Z,6.265259
2022-09-21T06:07:10.492Z,6.265259
2022-09-21T06:08:19.151Z,6.255188
2022-09-21T06:09:28.807Z,6.27533
2022-09-21T06:10:38.480Z,6.27533
2022-09-21T06:11:46.135Z,6.255188
2022-09-21T06:12:55.791Z,6.255188
2022-09-21T06:14:04.499Z,6.255188
2022-09-21T06:15:14.165Z,6.345825
2022-09-21T06:16:23.867Z,6.40625
2022-09-21T06:17:31.629Z,6.376038
2022-09-21T06:18:41.309Z,6.376038
2022-09-21T06:19:50.078Z,6.40625
2022-09-21T06:20:57.757Z,6.40625
2022-09-21T06:22:07.422Z,6.40625
2022-09-21T06:23:15.473Z,6.416321
2022-09-21T06:24:25.102Z,6.456604
2022-09-21T06:25:33.478Z,6.517029
2022-09-21T06:26:43.142Z,6.597595
2022-09-21T06:27:51.879Z,6.637878
2022-09-21T06:29:00.580Z,6.688232
2022-09-21T06:30:08.245Z,6.738586
2022-09-21T06:31:17.989Z,6.78894
2022-09-21T06:32:27.653Z,6.869507
2022-09-21T06:33:37.350Z,6.970215
2022-09-21T06:34:47.009Z,7.050781
2022-09-21T06:35:55.694Z,7.151489
2022-09-21T06:37:05.437Z,7.28241
2022-09-21T06:38:15.118Z,7.362976
2022-09-21T06:39:23.824Z,7.53418
2022-09-21T06:40:33.555Z,7.655029
2022-09-21T06:41:41.135Z,7.78595
2022-09-21T06:42:49.792Z,7.937012
2022-09-21T06:43:59.456Z,8.118286
2022-09-21T06:45:07.147Z,8.339844
2022-09-21T06:46:16.853Z,8.521118
2022-09-21T06:47:24.471Z,8.732605
2022-09-21T06:48:33.121Z,8.944092
2022-09-21T06:49:42.585Z,9.064941
2022-09-21T06:50:50.477Z,9.226074
2022-09-21T06:51:59.132Z,9.367065
2022-09-21T06:53:08.824Z,9.558411
2022-09-21T06:54:16.502Z,9.790039
2022-09-21T06:55:26.171Z,9.951172
2022-09-21T06:56:35.120Z,10.253296
2022-09-21T06:57:44.799Z,10.4245
2022-09-21T06:58:54.492Z,10.706482
2022-09-21T07:00:03.162Z,10.887756
2022-09-21T07:01:11.906Z,11.139526
2022-09-21T07:02:21.508Z,11.351013
2022-09-21T07:03:29.127Z,11.602783
2022-09-21T07:04:38.794Z,11.81427
2022-09-21T07:05:47.435Z,11.94519
2022-09-21T07:06:56.149Z,12.086182
2022-09-21T07:08:06.046Z,12.207031
2022-09-21T07:10:27.106Z,12.428589
2022-09-21T07:11:36.784Z,12.499084
2022-09-21T07:12:46.455Z,12.599792
2022-09-21T07:13:56.165Z,12.640076
2022-09-21T07:15:04.820Z,12.640076
2022-09-21T07:16:13.533Z,12.750854
2022-09-21T07:17:22.142Z,12.871704
2022-09-21T07:18:29.233Z,13.012695
2022-09-21T07:19:39.426Z,13.183899
2022-09-21T07:20:48.079Z,13.435669
2022-09-21T07:21:56.739Z,13.707581
2022-09-21T07:23:06.396Z,13.868713
2022-09-21T07:24:16.067Z,13.999634
2022-09-21T07:25:24.813Z,14.150696
2022-09-21T07:26:34.442Z,14.352112
2022-09-21T07:27:41.117Z,14.442749
2022-09-21T07:28:50.803Z,14.513245
2022-09-21T07:29:59.483Z,14.543457
2022-09-21T07:31:08.270Z,14.664307
2022-09-21T07:32:17.957Z,14.845581
2022-09-21T07:33:26.615Z,15.08728
2022-09-21T07:34:37.299Z,15.268555
2022-09-21T07:35:46.964Z,15.278625
2022-09-21T07:36:54.910Z,15.308838
2022-09-21T07:38:04.570Z,15.278625
2022-09-21T07:39:13.237Z,15.137634
2022-09-21T07:40:25.126Z,15.167847
2022-09-21T07:41:31.646Z,15.107422
2022-09-21T07:42:40.300Z,15.016785
2022-09-21T07:43:50.146Z,14.906006
2022-09-21T07:45:03.813Z,14.966431
2022-09-21T07:46:08.600Z,14.95636
2022-09-21T07:47:18.151Z,15.036926
2022-09-21T07:48:26.867Z,15.137634
2022-09-21T07:49:35.525Z,15.187988
2022-09-21T07:50:45.202Z,15.107422
2022-09-21T07:51:53.855Z,15.238342
2022-09-21T07:53:03.489Z,15.389404
2022-09-21T07:54:12.178Z,15.681458
2022-09-21T07:55:19.823Z,15.792236
2022-09-21T07:56:29.480Z,15.973511
2022-09-21T07:57:39.156Z,16.205139
2022-09-21T07:58:47.795Z,16.386414
2022-09-21T07:59:57.715Z,16.567688
2022-09-21T08:01:05.554Z,16.607971
2022-09-21T08:02:15.091Z,16.779175
2022-09-21T08:03:23.739Z,16.930237
2022-09-21T08:04:33.399Z,17.061157
2022-09-21T08:05:43.099Z,17.161865
2022-09-21T08:06:50.784Z,17.202148
2022-09-21T08:07:59.496Z,17.192078
2022-09-21T08:09:09.245Z,17.202148
2022-09-21T08:10:18.972Z,17.262573
2022-09-21T08:11:28.661Z,17.34314
2022-09-21T08:12:37.310Z,17.363281
2022-09-21T08:13:45.995Z,17.242432
2022-09-21T08:14:55.661Z,17.34314
2022-09-21T08:16:05.419Z,17.484131
2022-09-21T08:17:15.009Z,17.695618
2022-09-21T08:18:23.729Z,17.665405
2022-09-21T08:19:33.413Z,17.020874
2022-09-21T08:20:43.115Z,16.527405
2022-09-21T08:21:56.437Z,16.537476
2022-09-21T08:23:00.475Z,16.607971
2022-09-21T08:24:10.190Z,16.900024
2022-09-21T08:25:18.891Z,17.202148
2022-09-21T08:26:28.589Z,17.484131
2022-09-21T08:27:38.264Z,17.524414
2022-09-21T08:28:46.973Z,17.735901
2022-09-21T08:29:56.740Z,17.9776
2022-09-21T08:31:06.399Z,18.189087
2022-09-21T08:32:27.695Z,18.259583
2022-09-21T08:33:28.648Z,18.259583
2022-09-21T08:34:34.451Z,18.471069
2022-09-21T08:35:44.146Z,18.581848
2022-09-21T08:36:55.612Z,18.531494
2022-09-21T08:38:02.521Z,18.279724
2022-09-21T08:39:12.212Z,18.249512
2022-09-21T08:40:20.968Z,18.491211
2022-09-21T08:41:29.542Z,18.712769
2022-09-21T08:42:39.221Z,18.753052
2022-09-21T08:43:48.889Z,18.682556
2022-09-21T08:44:58.545Z,18.581848
2022-09-21T08:46:08.258Z,18.551636
2022-09-21T08:47:16.906Z,18.158875
2022-09-21T08:48:29.226Z,18.219299
2022-09-21T08:49:37.203Z,18.279724
2022-09-21T08:50:45.864Z,18.400574
2022-09-21T08:51:55.572Z,18.581848
2022-09-21T08:53:03.239Z,18.521423
2022-09-21T08:54:12.907Z,18.440857
2022-09-21T08:55:22.564Z,18.632202
2022-09-21T08:56:47.329Z,18.904114
2022-09-21T08:57:40.874Z,18.954468
2022-09-21T08:58:49.537Z,19.024963
2022-09-21T08:59:58.240Z,19.286804
2022-09-21T09:01:07.981Z,19.387512
2022-09-21T09:02:15.696Z,19.387512
2022-09-21T09:03:25.420Z,19.387512
2022-09-21T09:04:35.111Z,19.508362
2022-09-21T09:05:42.818Z,19.669495
2022-09-21T09:06:52.491Z,19.518433
2022-09-21T09:08:02.174Z,19.004822
2022-09-21T09:09:09.988Z,19.10553
2022-09-21T09:10:19.585Z,19.266663
2022-09-21T09:11:28.275Z,19.538574
2022-09-21T09:12:37.916Z,19.729919
2022-09-21T09:13:47.588Z,19.770203
2022-09-21T09:14:55.280Z,19.639282
2022-09-21T09:16:04.964Z,19.578857
2022-09-21T09:17:14.598Z,19.23645
2022-09-21T09:18:24.283Z,19.065247
2022-09-21T09:19:33.926Z,18.904114
2022-09-21T09:20:43.622Z,18.712769
2022-09-21T09:21:53.278Z,18.521423
2022-09-21T09:23:01.935Z,18.289795
2022-09-21T09:24:11.585Z,18.189087
2022-09-21T09:25:21.275Z,18.199158
2022-09-21T09:26:29.066Z,18.380432
2022-09-21T09:27:38.731Z,18.491211
2022-09-21T09:28:51.394Z,18.682556
2022-09-21T09:29:59.435Z,18.712769
2022-09-21T09:31:05.761Z,18.591919
2022-09-21T09:32:15.375Z,18.591919
2022-09-21T09:33:24.047Z,18.652344
2022-09-21T09:34:33.741Z,18.471069
2022-09-21T09:35:43.395Z,18.400574
2022-09-21T09:37:00.371Z,18.652344
2022-09-21T09:38:02.902Z,18.863831
2022-09-21T09:39:10.555Z,19.035034
2022-09-21T09:40:20.251Z,19.337158
2022-09-21T09:41:29.975Z,19.639282
2022-09-21T09:42:38.644Z,19.729919
2022-09-21T09:43:48.348Z,19.891052
2022-09-21T09:44:56.018Z,20.001831
2022-09-21T09:46:05.848Z,20.183105
2022-09-21T09:47:15.378Z,20.253601
2022-09-21T09:48:24.047Z,20.213318
2022-09-21T09:49:33.763Z,19.296875
2022-09-21T09:50:41.489Z,19.306946
2022-09-21T09:51:50.107Z,19.397583
2022-09-21T09:52:59.810Z,19.639282
2022-09-21T09:54:10.183Z,20.001831
2022-09-21T09:55:17.238Z,20.183105
2022-09-21T09:56:26.969Z,19.951477
2022-09-21T09:57:34.647Z,19.921265
2022-09-21T09:58:44.489Z,19.961548
2022-09-21T09:59:54.519Z,20.092468
2022-09-21T10:01:01.855Z,20.314026
2022-09-21T10:02:11.714Z,19.760132
2022-09-21T10:03:19.393Z,19.478149
2022-09-21T10:04:29.112Z,19.286804
2022-09-21T10:05:38.753Z,19.115601
2022-09-21T10:06:47.614Z,18.98468
2022-09-21T10:07:57.260Z,18.833618
2022-09-21T10:09:04.938Z,18.833618
2022-09-21T10:10:14.619Z,18.863831
2022-09-21T10:11:24.296Z,18.803406
2022-09-21T10:12:34.050Z,18.894043
2022-09-21T10:13:43.731Z,18.934326
2022-09-21T10:14:52.435Z,18.934326
2022-09-21T10:16:00.203Z,18.863831
2022-09-21T10:17:09.808Z,18.652344
2022-09-21T10:18:18.522Z,18.450928
2022-09-21T10:19:27.187Z,18.219299
2022-09-21T10:20:36.861Z,18.179016
2022-09-21T10:21:47.646Z,18.108521
2022-09-21T10:22:54.204Z,17.756042
2022-09-21T10:24:04.062Z,17.675476
2022-09-21T10:25:13.646Z,17.756042
2022-09-21T10:26:23.321Z,17.756042
2022-09-21T10:27:31.985Z,17.85675
2022-09-21T10:28:40.652Z,17.937317
2022-09-21T10:29:50.335Z,18.108521
2022-09-21T10:30:58.007Z,18.179016
2022-09-21T10:32:11.167Z,18.60199
2022-09-21T10:33:17.315Z,18.98468
2022-09-21T10:34:25.001Z,19.115601
2022-09-21T10:35:34.742Z,19.337158
2022-09-21T10:36:42.427Z,19.578857
2022-09-21T10:37:51.120Z,19.911194
2022-09-21T10:39:00.827Z,20.11261
2022-09-21T10:40:08.523Z,20.162964
2022-09-21T10:41:18.210Z,20.062256
2022-09-21T10:42:26.897Z,20.162964
2022-09-21T10:43:37.724Z,20.213318
2022-09-21T10:44:45.266Z,20.072327
2022-09-21T10:45:52.991Z,19.880981
2022-09-21T10:47:01.654Z,19.578857
2022-09-21T10:48:12.278Z,19.296875
2022-09-21T10:49:19.977Z,19.065247
2022-09-21T10:50:29.686Z,18.813477
2022-09-21T10:51:38.373Z,18.652344
2022-09-21T10:52:47.271Z,18.591919
2022-09-21T10:53:55.853Z,18.632202
2022-09-21T10:55:03.490Z,18.712769
2022-09-21T10:56:17.283Z,18.632202
2022-09-21T10:57:22.886Z,17.997742
2022-09-21T10:58:30.549Z,17.897034
2022-09-21T10:59:40.282Z,17.786255
2022-09-21T11:00:48.982Z,17.786255
2022-09-21T11:01:57.681Z,17.786255
2022-09-21T11:03:07.403Z,17.695618
2022-09-21T11:04:15.081Z,17.59491
2022-09-21T11:05:24.784Z,17.544556
2022-09-21T11:06:34.489Z,17.574768
2022-09-21T11:07:42.141Z,17.494202
2022-09-21T11:08:51.796Z,17.393494
2022-09-21T11:10:00.622Z,17.333069
2022-09-21T11:11:08.299Z,17.312927
2022-09-21T11:12:17.953Z,17.262573
2022-09-21T11:13:25.645Z,17.242432
2022-09-21T11:14:35.345Z,17.161865
2022-09-21T11:15:44.146Z,17.081299
2022-09-21T11:16:52.721Z,17.202148
2022-09-21T11:18:02.403Z,17.423706
2022-09-21T11:19:10.073Z,17.665405
2022-09-21T11:20:19.754Z,17.705688
2022-09-21T11:21:29.500Z,17.574768
2022-09-21T11:22:37.260Z,17.413635
2022-09-21T11:23:46.972Z,17.34314
2022-09-21T11:24:54.626Z,17.363281
2022-09-21T11:26:04.272Z,17.60498
2022-09-21T11:27:14.011Z,17.826538
2022-09-21T11:28:22.662Z,18.179016
2022-09-21T11:29:32.340Z,18.551636
2022-09-21T11:30:41.052Z,18.883972
2022-09-21T11:31:50.674Z,18.954468
2022-09-21T11:33:00.371Z,19.155884
2022-09-21T11:34:09.053Z,19.437866
2022-09-21T11:35:17.729Z,19.689636
2022-09-21T11:36:27.480Z,19.921265
2022-09-21T11:37:36.141Z,20.001831
2022-09-21T11:38:45.889Z,19.880981
2022-09-21T11:39:54.579Z,20.142822
2022-09-21T11:41:04.251Z,20.394592
2022-09-21T11:42:13.946Z,20.575867
2022-09-21T11:43:23.694Z,20.898132
2022-09-21T11:44:32.275Z,20.898132
2022-09-21T11:45:42.024Z,21.018982
2022-09-21T11:46:51.635Z,21.170044
2022-09-21T11:48:01.304Z,21.270752
2022-09-21T11:49:10.987Z,21.482239
2022-09-21T11:50:30.095Z,21.200256
2022-09-21T11:51:29.317Z,20.98877
2022-09-21T11:52:37.007Z,21.200256
2022-09-21T11:53:45.735Z,21.542664
2022-09-21T11:54:55.409Z,21.552734
2022-09-21T11:56:05.140Z,21.361389
2022-09-21T11:57:14.816Z,21.25061
2022-09-21T11:58:23.485Z,21.018982
2022-09-21T11:59:33.169Z,20.666504
2022-09-21T12:00:42.868Z,20.132751
2022-09-21T12:01:50.558Z,19.699707
2022-09-21T12:02:59.234Z,19.3573
2022-09-21T12:04:08.910Z,19.23645
2022-09-21T12:05:17.576Z,19.588928
2022-09-21T12:06:27.260Z,20.042114
2022-09-21T12:07:35.968Z,20.505371
2022-09-21T12:08:43.645Z,20.596008
2022-09-21T12:09:53.362Z,20.918274
2022-09-21T12:11:01.057Z,20.666504
2022-09-21T12:12:09.763Z,20.253601
2022-09-21T12:13:19.677Z,19.951477
2022-09-21T12:14:27.387Z,19.548645
2022-09-21T12:15:37.045Z,19.941406
2022-09-21T12:16:45.771Z,19.73999
2022-09-21T12:17:54.355Z,19.760132
2022-09-21T12:19:04.074Z,20.374451
2022-09-21T12:20:13.748Z,20.646362
2022-09-21T12:21:22.497Z,20.74707
2022-09-21T12:22:32.189Z,20.36438
2022-09-21T12:23:39.850Z,20.475159
2022-09-21T12:24:49.581Z,20.404663
2022-09-21T12:25:58.226Z,20.263672
2022-09-21T12:27:07.897Z,20.716858
2022-09-21T12:28:17.561Z,21.180115
2022-09-21T12:29:26.289Z,21.552734
2022-09-21T12:30:35.018Z,21.764221
2022-09-21T12:31:44.687Z,22.015991
2022-09-21T12:32:53.362Z,22.277832
2022-09-21T12:34:03.033Z,22.358398
2022-09-21T12:35:12.719Z,22.660522
2022-09-21T12:36:20.398Z,22.76123
2022-09-21T12:37:30.071Z,22.902222
2022-09-21T12:38:37.741Z,22.12677
2022-09-21T12:39:47.507Z,21.734009
2022-09-21T12:40:57.178Z,21.290894
2022-09-21T12:42:05.900Z,20.99884
2022-09-21T12:43:15.612Z,21.25061
2022-09-21T12:44:25.281Z,21.018982
2022-09-21T12:45:32.955Z,21.24054
2022-09-21T12:46:42.632Z,21.50238
2022-09-21T12:47:51.351Z,21.321106
2022-09-21T12:49:00.076Z,20.575867
2022-09-21T12:50:09.737Z,20.132751
2022-09-21T12:51:18.401Z,19.548645
2022-09-21T12:52:28.069Z,19.004822
2022-09-21T12:53:36.795Z,18.783264
2022-09-21T12:54:46.487Z,18.60199
2022-09-21T12:55:56.202Z,18.73291
2022-09-21T12:57:17.847Z,19.447937
2022-09-21T12:58:16.805Z,20.11261
2022-09-21T12:59:26.352Z,20.646362
2022-09-21T13:00:34.020Z,21.069336
2022-09-21T13:01:42.861Z,21.361389
2022-09-21T13:02:52.390Z,21.693726
2022-09-21T13:04:01.142Z,21.975708
2022-09-21T13:05:10.775Z,22.408752
2022-09-21T13:06:18.482Z,22.76123
2022-09-21T13:07:27.128Z,22.992859
2022-09-21T13:08:36.928Z,23.38562
2022-09-21T13:09:45.491Z,23.607178
2022-09-21T13:10:55.314Z,23.657532
2022-09-21T13:12:03.834Z,22.982788
2022-09-21T13:13:13.550Z,22.88208
2022-09-21T13:14:23.322Z,23.103638
2022-09-21T13:15:31.000Z,23.13385
2022-09-21T13:16:40.771Z,23.365479
2022-09-21T13:17:48.503Z,23.50647
2022-09-21T13:18:57.177Z,23.677673
2022-09-21T13:20:06.887Z,23.858948
2022-09-21T13:21:14.528Z,24.030151
2022-09-21T13:22:24.260Z,23.909302
2022-09-21T13:23:32.946Z,22.932434